sensor_id;sensor_type;location;lat;lon;timestamp;temperature;humidity
80214;DHT22;69531;37.974;23.708;2023-04-24T00:00:04;24.20;23.60
80214;DHT22;69531;37.974;23.708;2023-04-24T00:02:39;24.30;23.70
80214;DHT22;69531;37.974;23.708;2023-04-24T00:05:06;24.30;23.70
80214;DHT22;69531;37.974;23.708;2023-04-24T00:07:32;24.20;23.70
80214;DHT22;69531;37.974;23.708;2023-04-24T00:09:58;24.20;23.70
80214;DHT22;69531;37.974;23.708;2023-04-24T00:12:24;24.30;23.80
80214;DHT22;69531;37.974;23.708;2023-04-24T00:14:50;24.20;23.70
80214;DHT22;69531;37.974;23.708;2023-04-24T00:17:16;24.30;23.80
80214;DHT22;69531;37.974;23.708;2023-04-24T00:19:45;24.20;23.80
80214;DHT22;69531;37.974;23.708;2023-04-24T00:22:11;24.20;23.80
80214;DHT22;69531;37.974;23.708;2023-04-24T00:24:39;24.20;23.80
80214;DHT22;69531;37.974;23.708;2023-04-24T00:27:05;24.20;23.80
80214;DHT22;69531;37.974;23.708;2023-04-24T00:29:30;24.20;23.80
80214;DHT22;69531;37.974;23.708;2023-04-24T00:31:56;24.20;23.80
80214;DHT22;69531;37.974;23.708;2023-04-24T00:34:22;24.20;23.80
80214;DHT22;69531;37.974;23.708;2023-04-24T00:36:48;24.20;23.80
80214;DHT22;69531;37.974;23.708;2023-04-24T00:39:21;24.20;23.80
80214;DHT22;69531;37.974;23.708;2023-04-24T00:41:46;24.20;23.90
80214;DHT22;69531;37.974;23.708;2023-04-24T00:44:14;24.20;23.90
80214;DHT22;69531;37.974;23.708;2023-04-24T00:46:40;24.20;23.90
80214;DHT22;69531;37.974;23.708;2023-04-24T00:49:06;24.20;23.80
80214;DHT22;69531;37.974;23.708;2023-04-24T00:51:32;24.20;23.90
80214;DHT22;69531;37.974;23.708;2023-04-24T00:53:59;24.20;24.80
80214;DHT22;69531;37.974;23.708;2023-04-24T00:56:25;24.20;23.90
80214;DHT22;69531;37.974;23.708;2023-04-24T00:58:52;24.20;23.90
80214;DHT22;69531;37.974;23.708;2023-04-24T01:01:21;24.20;23.90
80214;DHT22;69531;37.974;23.708;2023-04-24T01:03:49;24.20;23.90
80214;DHT22;69531;37.974;23.708;2023-04-24T01:06:16;24.20;23.90
80214;DHT22;69531;37.974;23.708;2023-04-24T01:08:45;24.20;23.90
80214;DHT22;69531;37.974;23.708;2023-04-24T01:11:12;24.20;24.00
80214;DHT22;69531;37.974;23.708;2023-04-24T01:13:37;24.20;24.00
80214;DHT22;69531;37.974;23.708;2023-04-24T01:16:03;24.20;24.00
80214;DHT22;69531;37.974;23.708;2023-04-24T01:18:29;24.20;24.00
80214;DHT22;69531;37.974;23.708;2023-04-24T01:20:58;24.20;24.00
80214;DHT22;69531;37.974;23.708;2023-04-24T01:23:24;24.20;24.00
80214;DHT22;69531;37.974;23.708;2023-04-24T01:25:50;24.10;24.00
80214;DHT22;69531;37.974;23.708;2023-04-24T01:28:17;24.10;24.00
80214;DHT22;69531;37.974;23.708;2023-04-24T01:30:43;24.20;24.10
80214;DHT22;69531;37.974;23.708;2023-04-24T01:33:09;24.10;24.00
80214;DHT22;69531;37.974;23.708;2023-04-24T01:35:36;24.10;24.00
80214;DHT22;69531;37.974;23.708;2023-04-24T01:38:03;24.10;24.00
80214;DHT22;69531;37.974;23.708;2023-04-24T01:40:28;24.20;24.10
80214;DHT22;69531;37.974;23.708;2023-04-24T01:42:54;24.10;24.00
80214;DHT22;69531;37.974;23.708;2023-04-24T01:45:20;24.10;24.00
80214;DHT22;69531;37.974;23.708;2023-04-24T01:47:47;24.10;24.00
80214;DHT22;69531;37.974;23.708;2023-04-24T01:50:13;24.10;24.00
80214;DHT22;69531;37.974;23.708;2023-04-24T01:52:39;24.10;24.00
80214;DHT22;69531;37.974;23.708;2023-04-24T01:55:05;24.10;24.10
80214;DHT22;69531;37.974;23.708;2023-04-24T01:57:31;24.10;24.10
80214;DHT22;69531;37.974;23.708;2023-04-24T01:59:58;24.10;24.20
80214;DHT22;69531;37.974;23.708;2023-04-24T02:02:23;24.10;24.10
80214;DHT22;69531;37.974;23.708;2023-04-24T02:04:51;24.10;24.10
80214;DHT22;69531;37.974;23.708;2023-04-24T02:07:16;24.10;24.00
80214;DHT22;69531;37.974;23.708;2023-04-24T02:09:42;24.10;24.10
80214;DHT22;69531;37.974;23.708;2023-04-24T02:12:08;24.10;24.20
80214;DHT22;69531;37.974;23.708;2023-04-24T02:14:33;24.10;24.20
80214;DHT22;69531;37.974;23.708;2023-04-24T02:16:59;24.10;24.20
80214;DHT22;69531;37.974;23.708;2023-04-24T02:19:26;24.10;24.20
80214;DHT22;69531;37.974;23.708;2023-04-24T02:21:52;24.10;24.20
80214;DHT22;69531;37.974;23.708;2023-04-24T02:24:17;24.10;24.20
80214;DHT22;69531;37.974;23.708;2023-04-24T02:26:43;24.10;24.20
80214;DHT22;69531;37.974;23.708;2023-04-24T02:29:09;24.10;24.20
80214;DHT22;69531;37.974;23.708;2023-04-24T02:31:34;24.10;24.20
80214;DHT22;69531;37.974;23.708;2023-04-24T02:34:00;24.00;25.10
80214;DHT22;69531;37.974;23.708;2023-04-24T02:36:26;24.10;24.20
80214;DHT22;69531;37.974;23.708;2023-04-24T02:38:52;24.10;24.20
80214;DHT22;69531;37.974;23.708;2023-04-24T02:41:17;24.10;24.20
80214;DHT22;69531;37.974;23.708;2023-04-24T02:43:43;24.10;24.30
80214;DHT22;69531;37.974;23.708;2023-04-24T02:46:09;24.00;24.20
80214;DHT22;69531;37.974;23.708;2023-04-24T02:48:35;24.00;24.20
80214;DHT22;69531;37.974;23.708;2023-04-24T02:51:00;24.10;24.30
80214;DHT22;69531;37.974;23.708;2023-04-24T02:53:26;24.00;24.30
80214;DHT22;69531;37.974;23.708;2023-04-24T02:55:52;24.00;24.30
80214;DHT22;69531;37.974;23.708;2023-04-24T02:58:18;24.00;24.40
80214;DHT22;69531;37.974;23.708;2023-04-24T03:00:45;24.00;24.40
80214;DHT22;69531;37.974;23.708;2023-04-24T03:03:12;24.00;24.30
80214;DHT22;69531;37.974;23.708;2023-04-24T03:05:38;24.00;24.30
80214;DHT22;69531;37.974;23.708;2023-04-24T03:08:03;24.00;24.40
80214;DHT22;69531;37.974;23.708;2023-04-24T03:10:30;24.00;24.40
80214;DHT22;69531;37.974;23.708;2023-04-24T03:12:56;24.00;24.40
80214;DHT22;69531;37.974;23.708;2023-04-24T03:15:21;24.00;24.50
80214;DHT22;69531;37.974;23.708;2023-04-24T03:17:47;24.00;24.40
80214;DHT22;69531;37.974;23.708;2023-04-24T03:20:13;24.00;24.50
80214;DHT22;69531;37.974;23.708;2023-04-24T03:22:40;24.00;24.50
80214;DHT22;69531;37.974;23.708;2023-04-24T03:25:06;24.00;24.40
80214;DHT22;69531;37.974;23.708;2023-04-24T03:27:33;24.00;24.40
80214;DHT22;69531;37.974;23.708;2023-04-24T03:29:59;24.00;24.50
80214;DHT22;69531;37.974;23.708;2023-04-24T03:32:26;24.00;24.50
80214;DHT22;69531;37.974;23.708;2023-04-24T03:34:51;24.00;24.40
80214;DHT22;69531;37.974;23.708;2023-04-24T03:37:17;24.00;24.40
80214;DHT22;69531;37.974;23.708;2023-04-24T03:39:43;24.10;24.80
80214;DHT22;69531;37.974;23.708;2023-04-24T03:42:09;24.10;24.80
80214;DHT22;69531;37.974;23.708;2023-04-24T03:44:35;24.10;24.70
80214;DHT22;69531;37.974;23.708;2023-04-24T03:47:01;24.10;24.80
80214;DHT22;69531;37.974;23.708;2023-04-24T03:49:27;24.10;24.90
80214;DHT22;69531;37.974;23.708;2023-04-24T03:51:53;24.10;24.80
80214;DHT22;69531;37.974;23.708;2023-04-24T03:54:19;24.10;24.80
80214;DHT22;69531;37.974;23.708;2023-04-24T03:56:45;24.10;24.80
80214;DHT22;69531;37.974;23.708;2023-04-24T03:59:11;24.10;24.70
80214;DHT22;69531;37.974;23.708;2023-04-24T04:01:37;24.10;24.70
80214;DHT22;69531;37.974;23.708;2023-04-24T04:04:08;24.10;24.70
80214;DHT22;69531;37.974;23.708;2023-04-24T04:06:34;24.10;24.60
80214;DHT22;69531;37.974;23.708;2023-04-24T04:09:02;24.20;24.70
80214;DHT22;69531;37.974;23.708;2023-04-24T04:11:29;24.20;24.70
80214;DHT22;69531;37.974;23.708;2023-04-24T04:13:55;24.20;24.70
80214;DHT22;69531;37.974;23.708;2023-04-24T04:16:22;24.30;24.70
80214;DHT22;69531;37.974;23.708;2023-04-24T04:18:48;24.40;25.40
80214;DHT22;69531;37.974;23.708;2023-04-24T04:21:14;24.50;25.80
80214;DHT22;69531;37.974;23.708;2023-04-24T04:23:40;24.60;25.70
80214;DHT22;69531;37.974;23.708;2023-04-24T04:26:06;24.70;25.70
80214;DHT22;69531;37.974;23.708;2023-04-24T04:28:32;24.70;25.40
80214;DHT22;69531;37.974;23.708;2023-04-24T04:30:58;24.90;25.20
80214;DHT22;69531;37.974;23.708;2023-04-24T04:33:24;24.90;25.00
80214;DHT22;69531;37.974;23.708;2023-04-24T04:35:51;25.00;24.70
80214;DHT22;69531;37.974;23.708;2023-04-24T04:38:22;25.00;24.50
80214;DHT22;69531;37.974;23.708;2023-04-24T04:40:48;25.10;24.50
80214;DHT22;69531;37.974;23.708;2023-04-24T04:43:14;25.10;24.40
80214;DHT22;69531;37.974;23.708;2023-04-24T04:45:40;25.20;24.30
80214;DHT22;69531;37.974;23.708;2023-04-24T04:48:08;25.10;24.30
80214;DHT22;69531;37.974;23.708;2023-04-24T04:50:35;25.10;24.30
80214;DHT22;69531;37.974;23.708;2023-04-24T04:53:01;25.10;24.30
80214;DHT22;69531;37.974;23.708;2023-04-24T04:55:27;25.10;25.10
80214;DHT22;69531;37.974;23.708;2023-04-24T04:57:52;25.20;24.20
80214;DHT22;69531;37.974;23.708;2023-04-24T05:00:18;25.30;24.10
80214;DHT22;69531;37.974;23.708;2023-04-24T05:02:44;25.20;24.00
80214;DHT22;69531;37.974;23.708;2023-04-24T05:05:10;25.20;24.10
80214;DHT22;69531;37.974;23.708;2023-04-24T05:07:36;25.10;24.20
80214;DHT22;69531;37.974;23.708;2023-04-24T05:10:02;25.00;24.20
80214;DHT22;69531;37.974;23.708;2023-04-24T05:12:28;25.00;24.30
80214;DHT22;69531;37.974;23.708;2023-04-24T05:14:54;24.90;24.40
80214;DHT22;69531;37.974;23.708;2023-04-24T05:17:20;24.90;24.40
80214;DHT22;69531;37.974;23.708;2023-04-24T05:19:45;24.80;24.50
80214;DHT22;69531;37.974;23.708;2023-04-24T05:22:11;24.90;24.60
80214;DHT22;69531;37.974;23.708;2023-04-24T05:24:37;24.80;24.70
80214;DHT22;69531;37.974;23.708;2023-04-24T05:27:03;24.80;24.80
80214;DHT22;69531;37.974;23.708;2023-04-24T05:29:32;24.80;24.80
80214;DHT22;69531;37.974;23.708;2023-04-24T05:31:59;24.70;24.80
80214;DHT22;69531;37.974;23.708;2023-04-24T05:34:25;24.70;24.80
80214;DHT22;69531;37.974;23.708;2023-04-24T05:36:51;24.70;24.80
80214;DHT22;69531;37.974;23.708;2023-04-24T05:39:17;24.70;24.80
80214;DHT22;69531;37.974;23.708;2023-04-24T05:41:43;24.70;24.90
80214;DHT22;69531;37.974;23.708;2023-04-24T05:44:09;24.70;24.80
80214;DHT22;69531;37.974;23.708;2023-04-24T05:46:35;24.80;24.80
80214;DHT22;69531;37.974;23.708;2023-04-24T05:49:01;24.80;24.90
80214;DHT22;69531;37.974;23.708;2023-04-24T05:51:27;24.80;24.80
80214;DHT22;69531;37.974;23.708;2023-04-24T05:53:53;24.80;24.80
80214;DHT22;69531;37.974;23.708;2023-04-24T05:56:19;24.80;24.80
80214;DHT22;69531;37.974;23.708;2023-04-24T05:58:46;24.80;24.90
80214;DHT22;69531;37.974;23.708;2023-04-24T06:01:12;24.80;24.80
80214;DHT22;69531;37.974;23.708;2023-04-24T06:03:40;24.80;24.80
80214;DHT22;69531;37.974;23.708;2023-04-24T06:06:06;24.80;24.80
80214;DHT22;69531;37.974;23.708;2023-04-24T06:08:32;24.80;24.80
80214;DHT22;69531;37.974;23.708;2023-04-24T06:10:58;24.80;25.70
80214;DHT22;69531;37.974;23.708;2023-04-24T06:13:24;24.80;24.70
80214;DHT22;69531;37.974;23.708;2023-04-24T06:15:50;24.90;24.80
80214;DHT22;69531;37.974;23.708;2023-04-24T06:18:16;24.90;24.80
80214;DHT22;69531;37.974;23.708;2023-04-24T06:20:42;24.90;25.00
80214;DHT22;69531;37.974;23.708;2023-04-24T06:23:08;24.90;24.90
80214;DHT22;69531;37.974;23.708;2023-04-24T06:25:33;24.90;24.90
80214;DHT22;69531;37.974;23.708;2023-04-24T06:27:59;24.90;24.90
80214;DHT22;69531;37.974;23.708;2023-04-24T06:30:25;24.90;25.80
80214;DHT22;69531;37.974;23.708;2023-04-24T06:32:53;24.90;25.10
80214;DHT22;69531;37.974;23.708;2023-04-24T06:35:18;24.90;25.10
80214;DHT22;69531;37.974;23.708;2023-04-24T06:37:45;24.80;25.10
80214;DHT22;69531;37.974;23.708;2023-04-24T06:40:11;24.80;25.20
80214;DHT22;69531;37.974;23.708;2023-04-24T06:42:37;24.90;25.20
80214;DHT22;69531;37.974;23.708;2023-04-24T06:45:03;24.90;25.00
80214;DHT22;69531;37.974;23.708;2023-04-24T06:47:29;24.90;25.10
80214;DHT22;69531;37.974;23.708;2023-04-24T06:49:55;24.90;25.20
80214;DHT22;69531;37.974;23.708;2023-04-24T06:52:21;24.90;25.20
80214;DHT22;69531;37.974;23.708;2023-04-24T06:54:46;24.90;25.10
80214;DHT22;69531;37.974;23.708;2023-04-24T06:57:12;24.90;25.10
80214;DHT22;69531;37.974;23.708;2023-04-24T06:59:38;24.90;25.10
80214;DHT22;69531;37.974;23.708;2023-04-24T07:02:04;24.90;25.10
80214;DHT22;69531;37.974;23.708;2023-04-24T07:04:30;24.90;25.10
80214;DHT22;69531;37.974;23.708;2023-04-24T07:06:56;24.90;25.10
80214;DHT22;69531;37.974;23.708;2023-04-24T07:09:24;24.90;25.10
80214;DHT22;69531;37.974;23.708;2023-04-24T07:11:53;25.00;25.20
80214;DHT22;69531;37.974;23.708;2023-04-24T07:14:20;24.90;25.10
80214;DHT22;69531;37.974;23.708;2023-04-24T07:16:46;24.90;25.10
80214;DHT22;69531;37.974;23.708;2023-04-24T07:19:13;24.90;25.20
80214;DHT22;69531;37.974;23.708;2023-04-24T07:21:40;25.00;25.30
80214;DHT22;69531;37.974;23.708;2023-04-24T07:24:09;24.90;25.30
80214;DHT22;69531;37.974;23.708;2023-04-24T07:26:36;24.90;25.40
80214;DHT22;69531;37.974;23.708;2023-04-24T07:29:05;24.90;25.40
80214;DHT22;69531;37.974;23.708;2023-04-24T07:31:31;24.90;25.70
80214;DHT22;69531;37.974;23.708;2023-04-24T07:33:57;24.80;25.70
80214;DHT22;69531;37.974;23.708;2023-04-24T07:36:25;24.90;25.60
80214;DHT22;69531;37.974;23.708;2023-04-24T07:38:52;24.90;25.50
80214;DHT22;69531;37.974;23.708;2023-04-24T07:41:19;24.90;25.50
80214;DHT22;69531;37.974;23.708;2023-04-24T07:43:49;24.80;25.60
80214;DHT22;69531;37.974;23.708;2023-04-24T07:46:15;24.80;25.50
80214;DHT22;69531;37.974;23.708;2023-04-24T07:48:41;24.90;25.50
80214;DHT22;69531;37.974;23.708;2023-04-24T07:51:07;24.80;25.60
80214;DHT22;69531;37.974;23.708;2023-04-24T07:53:35;24.80;25.60
80214;DHT22;69531;37.974;23.708;2023-04-24T07:56:01;24.80;25.60
80214;DHT22;69531;37.974;23.708;2023-04-24T07:58:30;24.80;25.60
80214;DHT22;69531;37.974;23.708;2023-04-24T08:00:55;24.90;25.70
80214;DHT22;69531;37.974;23.708;2023-04-24T08:03:21;24.90;25.80
80214;DHT22;69531;37.974;23.708;2023-04-24T08:05:47;24.90;25.80
80214;DHT22;69531;37.974;23.708;2023-04-24T08:08:13;24.90;25.90
80214;DHT22;69531;37.974;23.708;2023-04-24T08:10:42;24.90;25.90
80214;DHT22;69531;37.974;23.708;2023-04-24T08:13:08;24.90;26.00
80214;DHT22;69531;37.974;23.708;2023-04-24T08:15:34;24.90;26.10
80214;DHT22;69531;37.974;23.708;2023-04-24T08:18:00;24.90;26.10
80214;DHT22;69531;37.974;23.708;2023-04-24T08:20:25;24.90;26.10
80214;DHT22;69531;37.974;23.708;2023-04-24T08:22:51;24.90;26.20
80214;DHT22;69531;37.974;23.708;2023-04-24T08:25:19;24.90;26.20
80214;DHT22;69531;37.974;23.708;2023-04-24T08:27:45;24.90;26.20
80214;DHT22;69531;37.974;23.708;2023-04-24T08:30:11;24.90;26.90
80214;DHT22;69531;37.974;23.708;2023-04-24T08:32:41;25.00;26.70
80214;DHT22;69531;37.974;23.708;2023-04-24T08:35:09;25.00;26.70
80214;DHT22;69531;37.974;23.708;2023-04-24T08:37:40;25.10;26.60
80214;DHT22;69531;37.974;23.708;2023-04-24T08:40:14;25.10;26.80
80214;DHT22;69531;37.974;23.708;2023-04-24T08:42:44;25.00;27.00
80214;DHT22;69531;37.974;23.708;2023-04-24T08:45:12;25.00;27.30
80214;DHT22;69531;37.974;23.708;2023-04-24T08:47:41;25.00;27.30
80214;DHT22;69531;37.974;23.708;2023-04-24T08:50:08;25.00;27.30
80214;DHT22;69531;37.974;23.708;2023-04-24T08:52:35;25.00;27.30
80214;DHT22;69531;37.974;23.708;2023-04-24T08:55:01;25.00;27.30
80214;DHT22;69531;37.974;23.708;2023-04-24T08:57:28;25.00;27.30
80214;DHT22;69531;37.974;23.708;2023-04-24T08:59:55;25.00;27.10
80214;DHT22;69531;37.974;23.708;2023-04-24T09:02:22;25.00;27.20
80214;DHT22;69531;37.974;23.708;2023-04-24T09:04:49;24.90;27.20
80214;DHT22;69531;37.974;23.708;2023-04-24T09:07:16;24.90;27.20
80214;DHT22;69531;37.974;23.708;2023-04-24T09:09:44;24.90;27.00
80214;DHT22;69531;37.974;23.708;2023-04-24T09:12:10;24.90;27.00
80214;DHT22;69531;37.974;23.708;2023-04-24T09:14:36;24.90;27.00
80214;DHT22;69531;37.974;23.708;2023-04-24T09:17:08;24.90;26.90
80214;DHT22;69531;37.974;23.708;2023-04-24T09:19:33;24.90;26.80
80214;DHT22;69531;37.974;23.708;2023-04-24T09:21:59;24.90;26.70
80214;DHT22;69531;37.974;23.708;2023-04-24T09:24:25;24.90;26.70
80214;DHT22;69531;37.974;23.708;2023-04-24T09:26:58;24.90;26.70
80214;DHT22;69531;37.974;23.708;2023-04-24T09:29:24;25.00;26.70
80214;DHT22;69531;37.974;23.708;2023-04-24T09:31:50;24.90;26.70
80214;DHT22;69531;37.974;23.708;2023-04-24T09:34:22;24.90;26.80
80214;DHT22;69531;37.974;23.708;2023-04-24T09:36:49;24.90;27.00
80214;DHT22;69531;37.974;23.708;2023-04-24T09:39:15;24.90;27.10
80214;DHT22;69531;37.974;23.708;2023-04-24T09:41:59;24.90;27.20
80214;DHT22;69531;37.974;23.708;2023-04-24T09:44:27;25.00;27.20
80214;DHT22;69531;37.974;23.708;2023-04-24T09:46:58;25.00;27.30
80214;DHT22;69531;37.974;23.708;2023-04-24T09:49:29;25.00;27.30
80214;DHT22;69531;37.974;23.708;2023-04-24T09:52:10;25.00;27.40
80214;DHT22;69531;37.974;23.708;2023-04-24T09:54:36;25.00;27.40
80214;DHT22;69531;37.974;23.708;2023-04-24T09:57:02;24.90;27.60
80214;DHT22;69531;37.974;23.708;2023-04-24T09:59:28;24.90;27.60
80214;DHT22;69531;37.974;23.708;2023-04-24T10:01:54;24.90;27.60
80214;DHT22;69531;37.974;23.708;2023-04-24T10:04:26;24.90;27.50
80214;DHT22;69531;37.974;23.708;2023-04-24T10:06:54;25.00;27.60
80214;DHT22;69531;37.974;23.708;2023-04-24T10:09:23;25.00;27.60
80214;DHT22;69531;37.974;23.708;2023-04-24T10:11:54;25.00;27.50
80214;DHT22;69531;37.974;23.708;2023-04-24T10:14:23;25.00;27.50
80214;DHT22;69531;37.974;23.708;2023-04-24T10:16:53;25.00;27.50
80214;DHT22;69531;37.974;23.708;2023-04-24T10:19:19;25.00;28.40
80214;DHT22;69531;37.974;23.708;2023-04-24T10:21:48;25.00;27.50
80214;DHT22;69531;37.974;23.708;2023-04-24T10:24:16;25.10;27.50
80214;DHT22;69531;37.974;23.708;2023-04-24T10:26:44;25.10;27.50
80214;DHT22;69531;37.974;23.708;2023-04-24T10:29:30;25.10;27.50
80214;DHT22;69531;37.974;23.708;2023-04-24T10:31:57;25.10;27.50
80214;DHT22;69531;37.974;23.708;2023-04-24T10:34:23;25.10;27.60
80214;DHT22;69531;37.974;23.708;2023-04-24T10:36:52;25.10;27.60
80214;DHT22;69531;37.974;23.708;2023-04-24T10:39:20;25.10;27.60
80214;DHT22;69531;37.974;23.708;2023-04-24T10:41:49;25.10;27.70
80214;DHT22;69531;37.974;23.708;2023-04-24T10:44:15;25.10;27.60
80214;DHT22;69531;37.974;23.708;2023-04-24T10:46:46;25.10;27.70
80214;DHT22;69531;37.974;23.708;2023-04-24T10:49:15;25.10;27.60
80214;DHT22;69531;37.974;23.708;2023-04-24T10:51:47;25.10;27.70
80214;DHT22;69531;37.974;23.708;2023-04-24T10:54:29;25.10;27.70
80214;DHT22;69531;37.974;23.708;2023-04-24T10:59:45;25.10;27.70
80214;DHT22;69531;37.974;23.708;2023-04-24T11:02:11;25.10;27.70
80214;DHT22;69531;37.974;23.708;2023-04-24T11:04:41;25.10;27.80
80214;DHT22;69531;37.974;23.708;2023-04-24T11:07:09;25.10;27.80
80214;DHT22;69531;37.974;23.708;2023-04-24T11:09:35;25.10;27.80
80214;DHT22;69531;37.974;23.708;2023-04-24T11:12:10;25.10;27.80
80214;DHT22;69531;37.974;23.708;2023-04-24T11:17:29;25.10;27.70
80214;DHT22;69531;37.974;23.708;2023-04-24T11:20:25;25.10;27.80
80214;DHT22;69531;37.974;23.708;2023-04-24T11:22:55;25.10;27.80
80214;DHT22;69531;37.974;23.708;2023-04-24T11:25:21;25.10;27.80
80214;DHT22;69531;37.974;23.708;2023-04-24T11:28:03;25.10;27.80
80214;DHT22;69531;37.974;23.708;2023-04-24T11:30:31;25.10;27.70
80214;DHT22;69531;37.974;23.708;2023-04-24T11:33:02;25.10;27.60
80214;DHT22;69531;37.974;23.708;2023-04-24T11:35:29;25.10;27.50
80214;DHT22;69531;37.974;23.708;2023-04-24T11:37:56;25.10;27.50
80214;DHT22;69531;37.974;23.708;2023-04-24T11:40:23;25.10;27.40
80214;DHT22;69531;37.974;23.708;2023-04-24T11:42:51;25.10;27.40
80214;DHT22;69531;37.974;23.708;2023-04-24T11:45:22;25.10;27.40
80214;DHT22;69531;37.974;23.708;2023-04-24T11:47:48;25.10;27.40
80214;DHT22;69531;37.974;23.708;2023-04-24T11:50:16;25.10;27.40
80214;DHT22;69531;37.974;23.708;2023-04-24T11:52:48;25.10;27.40
80214;DHT22;69531;37.974;23.708;2023-04-24T11:57:43;25.20;27.30
80214;DHT22;69531;37.974;23.708;2023-04-24T12:00:23;25.20;27.30
80214;DHT22;69531;37.974;23.708;2023-04-24T12:02:49;25.20;27.40
80214;DHT22;69531;37.974;23.708;2023-04-24T12:05:29;25.20;27.50
80214;DHT22;69531;37.974;23.708;2023-04-24T12:07:56;25.20;27.50
80214;DHT22;69531;37.974;23.708;2023-04-24T12:10:24;25.20;27.60
80214;DHT22;69531;37.974;23.708;2023-04-24T12:12:51;25.20;27.80
80214;DHT22;69531;37.974;23.708;2023-04-24T12:15:18;25.10;27.70
80214;DHT22;69531;37.974;23.708;2023-04-24T12:17:45;25.10;27.70
80214;DHT22;69531;37.974;23.708;2023-04-24T12:20:12;25.10;27.80
80214;DHT22;69531;37.974;23.708;2023-04-24T12:22:55;25.10;27.80
80214;DHT22;69531;37.974;23.708;2023-04-24T12:25:23;25.10;27.80
80214;DHT22;69531;37.974;23.708;2023-04-24T12:28:09;25.10;27.90
80214;DHT22;69531;37.974;23.708;2023-04-24T12:30:44;25.20;27.80
80214;DHT22;69531;37.974;23.708;2023-04-24T12:33:10;25.10;27.80
80214;DHT22;69531;37.974;23.708;2023-04-24T12:35:36;25.10;28.60
80214;DHT22;69531;37.974;23.708;2023-04-24T12:38:15;25.10;27.60
80214;DHT22;69531;37.974;23.708;2023-04-24T12:40:42;25.20;27.50
80214;DHT22;69531;37.974;23.708;2023-04-24T12:43:18;25.10;28.30
80214;DHT22;69531;37.974;23.708;2023-04-24T12:45:45;25.20;27.50
80214;DHT22;69531;37.974;23.708;2023-04-24T12:48:11;25.20;27.50
80214;DHT22;69531;37.974;23.708;2023-04-24T12:50:38;25.20;27.40
80214;DHT22;69531;37.974;23.708;2023-04-24T12:53:04;25.20;27.30
80214;DHT22;69531;37.974;23.708;2023-04-24T12:55:29;25.20;27.30
80214;DHT22;69531;37.974;23.708;2023-04-24T12:57:55;25.20;27.30
80214;DHT22;69531;37.974;23.708;2023-04-24T13:00:21;25.20;27.20
80214;DHT22;69531;37.974;23.708;2023-04-24T13:02:47;25.20;27.10
80214;DHT22;69531;37.974;23.708;2023-04-24T13:05:13;25.20;26.90
80214;DHT22;69531;37.974;23.708;2023-04-24T13:07:39;25.20;26.90
80214;DHT22;69531;37.974;23.708;2023-04-24T13:10:06;25.10;26.80
80214;DHT22;69531;37.974;23.708;2023-04-24T13:12:32;25.10;26.70
80214;DHT22;69531;37.974;23.708;2023-04-24T13:14:58;25.10;26.50
80214;DHT22;69531;37.974;23.708;2023-04-24T13:17:24;25.10;26.30
80214;DHT22;69531;37.974;23.708;2023-04-24T13:19:51;25.20;26.10
80214;DHT22;69531;37.974;23.708;2023-04-24T13:22:17;25.10;26.10
80214;DHT22;69531;37.974;23.708;2023-04-24T13:24:44;25.00;26.20
80214;DHT22;69531;37.974;23.708;2023-04-24T13:27:10;25.00;26.20
80214;DHT22;69531;37.974;23.708;2023-04-24T13:29:36;25.10;26.30
80214;DHT22;69531;37.974;23.708;2023-04-24T13:32:02;25.10;26.20
80214;DHT22;69531;37.974;23.708;2023-04-24T13:34:28;25.10;26.30
80214;DHT22;69531;37.974;23.708;2023-04-24T13:36:55;25.10;26.20
80214;DHT22;69531;37.974;23.708;2023-04-24T13:39:22;25.10;26.10
80214;DHT22;69531;37.974;23.708;2023-04-24T13:41:48;25.10;26.10
80214;DHT22;69531;37.974;23.708;2023-04-24T13:44:15;25.10;26.20
80214;DHT22;69531;37.974;23.708;2023-04-24T13:46:41;25.10;26.20
80214;DHT22;69531;37.974;23.708;2023-04-24T13:49:09;25.10;26.30
80214;DHT22;69531;37.974;23.708;2023-04-24T13:51:34;25.00;26.30
80214;DHT22;69531;37.974;23.708;2023-04-24T13:54:00;25.00;26.30
80214;DHT22;69531;37.974;23.708;2023-04-24T13:56:26;25.00;26.40
80214;DHT22;69531;37.974;23.708;2023-04-24T13:58:52;25.00;26.50
80214;DHT22;69531;37.974;23.708;2023-04-24T14:01:19;25.00;26.70
80214;DHT22;69531;37.974;23.708;2023-04-24T14:03:46;24.90;26.80
80214;DHT22;69531;37.974;23.708;2023-04-24T14:06:11;24.90;26.90
80214;DHT22;69531;37.974;23.708;2023-04-24T14:08:37;24.90;27.00
80214;DHT22;69531;37.974;23.708;2023-04-24T14:11:03;24.90;26.90
80214;DHT22;69531;37.974;23.708;2023-04-24T14:13:29;24.90;27.00
80214;DHT22;69531;37.974;23.708;2023-04-24T14:15:55;24.90;27.00
80214;DHT22;69531;37.974;23.708;2023-04-24T14:18:20;24.90;27.00
80214;DHT22;69531;37.974;23.708;2023-04-24T14:20:46;24.90;27.10
80214;DHT22;69531;37.974;23.708;2023-04-24T14:23:13;24.90;27.10
80214;DHT22;69531;37.974;23.708;2023-04-24T14:25:39;24.90;27.00
80214;DHT22;69531;37.974;23.708;2023-04-24T14:28:06;24.90;27.00
80214;DHT22;69531;37.974;23.708;2023-04-24T14:30:32;24.90;27.00
80214;DHT22;69531;37.974;23.708;2023-04-24T14:32:58;24.90;26.90
80214;DHT22;69531;37.974;23.708;2023-04-24T14:35:23;24.90;26.80
80214;DHT22;69531;37.974;23.708;2023-04-24T14:37:49;24.90;26.70
80214;DHT22;69531;37.974;23.708;2023-04-24T14:40:16;24.90;26.60
80214;DHT22;69531;37.974;23.708;2023-04-24T14:42:42;24.90;26.60
80214;DHT22;69531;37.974;23.708;2023-04-24T14:45:08;24.90;26.60
80214;DHT22;69531;37.974;23.708;2023-04-24T14:47:34;24.90;26.60
80214;DHT22;69531;37.974;23.708;2023-04-24T14:50:00;24.90;26.60
80214;DHT22;69531;37.974;23.708;2023-04-24T14:52:25;24.90;26.70
80214;DHT22;69531;37.974;23.708;2023-04-24T14:54:51;24.90;26.70
80214;DHT22;69531;37.974;23.708;2023-04-24T14:57:17;24.90;26.90
80214;DHT22;69531;37.974;23.708;2023-04-24T14:59:43;24.90;27.10
80214;DHT22;69531;37.974;23.708;2023-04-24T15:02:08;24.90;27.30
80214;DHT22;69531;37.974;23.708;2023-04-24T15:04:35;24.90;27.30
80214;DHT22;69531;37.974;23.708;2023-04-24T15:07:01;24.90;27.40
80214;DHT22;69531;37.974;23.708;2023-04-24T15:09:27;24.80;27.10
80214;DHT22;69531;37.974;23.708;2023-04-24T15:11:53;24.90;27.00
80214;DHT22;69531;37.974;23.708;2023-04-24T15:14:19;24.80;26.80
80214;DHT22;69531;37.974;23.708;2023-04-24T15:16:45;24.80;26.70
80214;DHT22;69531;37.974;23.708;2023-04-24T15:19:10;24.80;26.50
80214;DHT22;69531;37.974;23.708;2023-04-24T15:21:37;24.80;26.40